createdAt,value
2023-04-18T00:00:53.402Z,54.02
2023-04-18T00:01:53.499Z,53.99
2023-04-18T00:02:53.596Z,54.09
2023-04-18T00:03:53.530Z,55.10
2023-04-18T00:04:53.569Z,55.30
2023-04-18T00:05:53.347Z,54.01
2023-04-18T00:06:53.353Z,53.90
2023-04-18T00:07:53.414Z,53.53
2023-04-18T00:08:53.419Z,53.73
2023-04-18T00:09:53.331Z,53.77
2023-04-18T00:10:53.368Z,53.62
2023-04-18T00:11:53.301Z,53.74
2023-04-18T00:12:53.302Z,54.12
2023-04-18T00:13:53.350Z,54.09
2023-04-18T00:14:53.286Z,54.35
2023-04-18T00:15:53.299Z,55.01
2023-04-18T00:16:53.550Z,56.40
2023-04-18T00:17:53.364Z,54.73
2023-04-18T00:18:53.251Z,54.34
2023-04-18T00:19:53.294Z,54.20
2023-04-18T00:20:53.257Z,54.65
2023-04-18T00:21:53.316Z,54.44
2023-04-18T00:22:53.289Z,54.55
2023-04-18T00:23:53.372Z,54.33
2023-04-18T00:24:53.425Z,54.47
2023-04-18T00:25:53.357Z,54.09
2023-04-18T00:26:53.196Z,55.23
2023-04-18T00:27:53.209Z,55.73
2023-04-18T00:28:53.336Z,54.44
2023-04-18T00:29:53.187Z,54.96
2023-04-18T00:30:53.242Z,54.29
2023-04-18T00:31:53.195Z,54.44
2023-04-18T00:32:53.237Z,54.02
2023-04-18T00:33:53.149Z,55.16
2023-04-18T00:34:53.185Z,53.69
2023-04-18T00:35:53.164Z,53.75
2023-04-18T00:36:53.143Z,54.05
2023-04-18T00:37:53.135Z,54.30
2023-04-18T00:38:53.164Z,54.60
2023-04-18T00:39:53.177Z,53.71
2023-04-18T00:40:53.155Z,53.69
2023-04-18T00:41:53.101Z,53.86
2023-04-18T00:42:53.104Z,54.25
2023-04-18T00:43:53.113Z,54.07
2023-04-18T00:44:53.062Z,53.90
2023-04-18T00:45:53.134Z,53.85
2023-04-18T00:46:53.080Z,53.74
2023-04-18T00:47:53.223Z,53.63
2023-04-18T00:48:53.031Z,53.66
2023-04-18T00:49:53.054Z,53.84
2023-04-18T00:50:53.019Z,53.51
2023-04-18T00:51:53.069Z,53.57
2023-04-18T00:52:53.069Z,53.71
2023-04-18T00:53:53.022Z,53.43
2023-04-18T00:54:52.989Z,53.93
2023-04-18T00:55:53.022Z,54.36
2023-04-18T00:56:52.999Z,53.63
2023-04-18T00:57:53.005Z,54.29
2023-04-18T00:58:53.017Z,53.98
2023-04-18T00:59:52.952Z,53.67
2023-04-18T01:00:52.971Z,53.85
2023-04-18T01:01:53.104Z,53.68
2023-04-18T01:02:53.057Z,53.54
2023-04-18T01:03:53.155Z,53.77
2023-04-18T01:04:52.985Z,54.05
2023-04-18T01:05:52.952Z,54.88
2023-04-18T01:06:52.892Z,59.43
2023-04-18T01:07:52.927Z,58.16
2023-04-18T01:08:52.937Z,54.12
2023-04-18T01:09:52.906Z,53.84
2023-04-18T01:10:52.951Z,53.96
2023-04-18T01:11:52.876Z,53.66
2023-04-18T01:12:52.866Z,53.56
2023-04-18T01:14:08.633Z,54.05
2023-04-18T01:14:53.863Z,54.08
2023-04-18T01:15:52.883Z,56.31
2023-04-18T01:16:52.875Z,55.89
2023-04-18T01:17:52.864Z,53.88
2023-04-18T01:18:52.842Z,53.84
2023-04-18T01:19:52.821Z,53.78
2023-04-18T01:20:52.830Z,53.87
2023-04-18T01:21:52.814Z,53.69
2023-04-18T01:22:53.211Z,53.79
2023-04-18T01:23:52.775Z,53.59
2023-04-18T01:24:52.788Z,53.83
2023-04-18T01:25:52.777Z,54.10
2023-04-18T01:26:52.779Z,54.18
2023-04-18T01:27:52.924Z,53.74
2023-04-18T01:28:52.800Z,53.85
2023-04-18T01:29:52.858Z,55.19
2023-04-18T01:30:52.785Z,55.89
2023-04-18T01:31:52.719Z,54.01
2023-04-18T01:32:52.789Z,55.49
2023-04-18T01:33:52.718Z,53.84
2023-04-18T01:34:52.771Z,53.66
2023-04-18T01:35:52.774Z,53.77
2023-04-18T01:36:52.865Z,54.19
2023-04-18T01:37:52.710Z,53.80
2023-04-18T01:38:52.693Z,54.61
2023-04-18T01:39:52.717Z,54.79
2023-04-18T01:40:52.734Z,53.79
2023-04-18T01:41:52.679Z,53.93
2023-04-18T01:42:52.670Z,54.01
2023-04-18T01:43:52.670Z,53.86
2023-04-18T01:44:52.663Z,53.87
2023-04-18T01:46:08.794Z,53.89
2023-04-18T01:46:52.707Z,53.94
2023-04-18T01:47:52.704Z,53.80
2023-04-18T01:48:52.651Z,54.00
2023-04-18T01:49:52.631Z,54.03
2023-04-18T01:50:52.612Z,54.04
2023-04-18T01:51:52.659Z,54.44
2023-04-18T01:52:52.584Z,54.87
2023-04-18T01:53:52.599Z,53.97
2023-04-18T01:54:52.588Z,54.02
2023-04-18T01:55:52.567Z,54.01
2023-04-18T01:56:52.551Z,54.08
2023-04-18T01:57:52.596Z,53.98
2023-04-18T01:58:52.551Z,53.85
2023-04-18T01:59:52.543Z,53.98
2023-04-18T02:00:52.533Z,54.38
2023-04-18T02:01:52.566Z,54.18
2023-04-18T02:02:52.664Z,54.01
2023-04-18T02:03:52.834Z,53.94
2023-04-18T02:04:52.521Z,54.43
2023-04-18T02:05:52.558Z,54.28
2023-04-18T02:06:52.502Z,54.00
2023-04-18T02:07:52.496Z,54.27
2023-04-18T02:08:52.490Z,54.03
2023-04-18T02:09:52.514Z,53.87
2023-04-18T02:10:52.482Z,53.95
2023-04-18T02:11:52.453Z,53.98
2023-04-18T02:12:52.463Z,55.44
2023-04-18T02:13:52.469Z,55.15
2023-04-18T02:14:52.423Z,54.17
2023-04-18T02:15:52.459Z,55.94
2023-04-18T02:16:52.451Z,54.48
2023-04-18T02:17:52.468Z,54.34
2023-04-18T02:18:52.435Z,55.89
2023-04-18T02:19:52.420Z,54.85
2023-04-18T02:20:52.384Z,54.43
2023-04-18T02:21:52.450Z,54.05
2023-04-18T02:22:52.372Z,56.94
2023-04-18T02:23:52.374Z,55.68
2023-04-18T02:24:52.367Z,54.29
2023-04-18T02:25:52.348Z,54.12
2023-04-18T02:26:52.377Z,54.29
2023-04-18T02:27:52.736Z,56.45
2023-04-18T02:28:52.343Z,57.80
2023-04-18T02:29:52.338Z,54.82
2023-04-18T02:30:52.338Z,54.22
2023-04-18T02:31:52.356Z,53.97
2023-04-18T02:32:52.383Z,54.86
2023-04-18T02:33:52.316Z,54.93
2023-04-18T02:34:52.285Z,54.16
2023-04-18T02:35:52.271Z,54.45
2023-04-18T02:36:52.273Z,54.32
2023-04-18T02:37:52.278Z,54.04
2023-04-18T02:38:52.263Z,54.34
2023-04-18T02:39:52.286Z,54.71
2023-04-18T02:40:52.268Z,54.50
2023-04-18T02:41:52.245Z,54.52
2023-04-18T02:42:52.244Z,55.82
2023-04-18T02:43:52.232Z,54.44
2023-04-18T02:44:52.196Z,55.84
2023-04-18T02:45:52.274Z,54.62
2023-04-18T02:46:52.190Z,54.29
2023-04-18T02:47:56.228Z,54.64
2023-04-18T02:48:52.207Z,54.74
2023-04-18T02:49:52.176Z,55.41
2023-04-18T02:50:52.180Z,57.14
2023-04-18T02:51:52.213Z,56.89
2023-04-18T02:52:52.175Z,54.94
2023-04-18T02:53:52.147Z,54.57
2023-04-18T02:54:52.143Z,54.77
2023-04-18T02:55:52.133Z,56.64
2023-04-18T02:56:52.130Z,56.15
2023-04-18T02:57:52.186Z,54.88
2023-04-18T02:58:52.121Z,55.01
2023-04-18T02:59:52.107Z,55.16
2023-04-18T03:00:52.132Z,55.20
2023-04-18T03:01:52.100Z,54.58
2023-04-18T03:02:52.147Z,54.47
2023-04-18T03:03:52.117Z,54.22
2023-04-18T03:04:52.114Z,54.46
2023-04-18T03:05:52.062Z,54.88
2023-04-18T03:06:52.082Z,54.70
2023-04-18T03:07:52.076Z,54.81
2023-04-18T03:08:52.096Z,54.68
2023-04-18T03:09:52.075Z,54.39
2023-04-18T03:10:52.053Z,54.30
2023-04-18T03:11:52.020Z,54.56
2023-04-18T03:12:52.007Z,54.67
2023-04-18T03:13:52.022Z,54.90
2023-04-18T03:14:52.022Z,55.06
2023-04-18T03:15:52.077Z,56.62
2023-04-18T03:16:54.680Z,54.63
2023-04-18T03:17:52.024Z,55.02
2023-04-18T03:18:51.972Z,55.73
2023-04-18T03:19:51.987Z,55.40
2023-04-18T03:20:51.986Z,56.25
2023-04-18T03:21:51.986Z,54.70
2023-04-18T03:22:51.941Z,55.02
2023-04-18T03:23:51.924Z,55.55
2023-04-18T03:24:51.949Z,54.72
2023-04-18T03:25:51.910Z,55.05
2023-04-18T03:26:51.936Z,56.22
2023-04-18T03:27:51.936Z,56.38
2023-04-18T03:28:51.914Z,55.16
2023-04-18T03:29:51.897Z,55.13
2023-04-18T03:30:51.924Z,55.07
2023-04-18T03:31:51.904Z,54.99
2023-04-18T03:32:51.948Z,55.96
2023-04-18T03:33:52.280Z,57.19
2023-04-18T03:34:51.900Z,58.85
2023-04-18T03:35:51.862Z,59.00
2023-04-18T03:36:51.846Z,58.34
2023-04-18T03:37:51.829Z,58.09
2023-04-18T03:38:51.840Z,57.56
2023-04-18T03:39:51.922Z,58.38
2023-04-18T03:40:51.836Z,58.49
2023-04-18T03:41:51.821Z,58.25
2023-04-18T03:42:51.807Z,58.82
2023-04-18T03:43:51.781Z,57.66
2023-04-18T03:44:51.825Z,57.99
2023-04-18T03:45:51.794Z,57.63
2023-04-18T03:46:51.814Z,57.57
2023-04-18T03:47:51.850Z,59.78
2023-04-18T03:48:51.751Z,58.64
2023-04-18T03:49:51.752Z,57.07
2023-04-18T03:50:51.742Z,57.41
2023-04-18T03:51:51.790Z,57.46
2023-04-18T03:52:51.718Z,58.26
2023-04-18T03:53:51.746Z,60.81
2023-04-18T03:54:51.709Z,57.40
2023-04-18T03:55:51.715Z,59.47
2023-04-18T03:56:51.715Z,57.39
2023-04-18T03:57:51.738Z,56.30
2023-04-18T03:58:51.685Z,57.17
2023-04-18T03:59:51.670Z,57.50
2023-04-18T04:00:51.727Z,59.99
2023-04-18T04:01:51.726Z,59.60
2023-04-18T04:02:51.840Z,59.94
2023-04-18T04:03:51.922Z,60.22
2023-04-18T04:04:51.730Z,60.42
2023-04-18T04:05:51.657Z,60.91
2023-04-18T04:06:51.674Z,59.96
2023-04-18T04:07:51.626Z,59.36
2023-04-18T04:08:51.645Z,59.16
2023-04-18T04:09:51.671Z,60.20
2023-04-18T04:10:51.624Z,60.26
2023-04-18T04:11:51.643Z,59.77
2023-04-18T04:12:51.601Z,59.21
2023-04-18T04:13:51.585Z,58.89
2023-04-18T04:14:51.582Z,58.60
2023-04-18T04:15:51.615Z,58.56
2023-04-18T04:16:51.633Z,58.50
2023-04-18T04:17:51.642Z,60.53
2023-04-18T04:18:51.564Z,59.49
2023-04-18T04:19:51.558Z,58.54
2023-04-18T04:20:51.800Z,58.53
2023-04-18T04:21:51.577Z,57.49
2023-04-18T04:22:51.536Z,57.59
2023-04-18T04:23:51.588Z,60.80
2023-04-18T04:24:51.544Z,57.81
2023-04-18T04:25:51.529Z,59.05
2023-04-18T04:26:51.496Z,58.04
2023-04-18T04:27:51.665Z,57.65
2023-04-18T04:28:51.495Z,59.08
2023-04-18T04:29:51.503Z,59.11
2023-04-18T04:30:51.474Z,58.82
2023-04-18T04:31:51.517Z,58.99
2023-04-18T04:32:51.507Z,58.29
2023-04-18T04:33:51.741Z,57.08
2023-04-18T04:34:51.489Z,57.83
2023-04-18T04:35:51.456Z,60.79
2023-04-18T04:36:51.430Z,67.30
2023-04-18T04:37:51.445Z,62.67
2023-04-18T04:38:51.412Z,61.91
2023-04-18T04:39:51.671Z,61.86
2023-04-18T04:40:51.377Z,61.05
2023-04-18T04:41:51.450Z,61.16
2023-04-18T04:42:51.719Z,60.47
2023-04-18T04:43:51.508Z,60.67
2023-04-18T04:44:51.451Z,58.51
2023-04-18T04:45:51.808Z,57.06
2023-04-18T04:46:51.434Z,57.89
2023-04-18T04:47:51.406Z,59.24
2023-04-18T04:48:51.345Z,56.97
2023-04-18T04:49:51.330Z,56.96
2023-04-18T04:50:51.340Z,56.82
2023-04-18T04:51:51.351Z,59.11
2023-04-18T04:52:51.333Z,57.94
2023-04-18T04:53:51.332Z,58.14
2023-04-18T04:54:51.372Z,58.58
2023-04-18T04:55:51.394Z,62.63
2023-04-18T04:56:51.285Z,63.57
2023-04-18T04:57:51.317Z,62.03
2023-04-18T04:58:51.338Z,61.66
2023-04-18T04:59:51.325Z,59.98
2023-04-18T05:00:51.407Z,57.81
2023-04-18T05:01:51.403Z,60.89
2023-04-18T05:02:51.590Z,58.78
2023-04-18T05:03:51.405Z,59.14
2023-04-18T05:04:51.270Z,61.35
2023-04-18T05:05:51.248Z,57.14
2023-04-18T05:06:51.219Z,56.99
2023-04-18T05:07:51.258Z,57.91
2023-04-18T05:08:51.242Z,55.74
2023-04-18T05:09:51.550Z,59.76
2023-04-18T05:10:51.221Z,57.46
2023-04-18T05:11:51.262Z,60.11
2023-04-18T05:13:02.215Z,57.25
2023-04-18T05:13:52.582Z,57.53
2023-04-18T05:14:51.144Z,56.81
2023-04-18T05:15:51.294Z,57.50
2023-04-18T05:16:51.339Z,55.90
2023-04-18T05:17:51.202Z,57.88
2023-04-18T05:18:51.146Z,59.83
2023-04-18T05:19:51.180Z,60.36
2023-04-18T05:20:51.128Z,59.27
2023-04-18T05:21:51.160Z,59.29
2023-04-18T05:22:51.093Z,57.48
2023-04-18T05:23:51.089Z,57.55
2023-04-18T05:24:51.461Z,59.41
2023-04-18T05:25:51.222Z,57.78
2023-04-18T05:26:51.087Z,60.42
2023-04-18T05:27:51.116Z,61.26
2023-04-18T05:28:51.053Z,60.97
2023-04-18T05:29:51.061Z,60.69
2023-04-18T05:30:51.094Z,59.95
2023-04-18T05:31:51.026Z,61.55
2023-04-18T05:32:51.211Z,62.28
2023-04-18T05:33:51.687Z,65.38
2023-04-18T05:34:51.033Z,72.65
2023-04-18T05:35:51.108Z,75.06
2023-04-18T05:36:51.091Z,75.66
2023-04-18T05:37:51.178Z,74.33
2023-04-18T05:38:51.157Z,71.82
2023-04-18T05:39:51.297Z,69.60
2023-04-18T05:40:51.264Z,64.95
2023-04-18T05:41:51.450Z,59.48
2023-04-18T05:42:51.358Z,59.92
2023-04-18T05:44:01.918Z,59.16
2023-04-18T05:44:52.972Z,66.27
2023-04-18T05:45:51.525Z,60.44
2023-04-18T05:46:50.998Z,62.73
2023-04-18T05:47:51.318Z,58.97
2023-04-18T05:48:51.297Z,60.26
2023-04-18T05:49:51.191Z,60.17
2023-04-18T05:50:51.304Z,58.68
2023-04-18T05:51:50.897Z,59.79
2023-04-18T05:52:50.887Z,58.16
2023-04-18T05:53:51.360Z,61.29
2023-04-18T05:54:50.931Z,58.80
2023-04-18T05:55:51.005Z,58.85
2023-04-18T05:56:52.063Z,59.02
2023-04-18T05:57:51.664Z,61.41
2023-04-18T05:58:51.222Z,60.19
2023-04-18T05:59:50.910Z,59.17
2023-04-18T06:00:51.011Z,57.53
2023-04-18T06:01:51.239Z,60.04
2023-04-18T06:02:52.315Z,59.91
2023-04-18T06:03:51.840Z,59.87
2023-04-18T06:04:51.355Z,60.64
2023-04-18T06:05:51.466Z,59.28
2023-04-18T06:06:51.575Z,57.35
2023-04-18T06:07:51.425Z,56.76
2023-04-18T06:08:51.673Z,59.13
2023-04-18T06:09:51.035Z,58.39
2023-04-18T06:10:50.956Z,56.86
2023-04-18T06:11:51.360Z,59.86
2023-04-18T06:12:51.147Z,59.74
2023-04-18T06:13:51.226Z,59.69
2023-04-18T06:14:51.195Z,57.56
2023-04-18T06:15:50.832Z,57.93
2023-04-18T06:16:51.355Z,57.95
2023-04-18T06:17:51.121Z,60.02
2023-04-18T06:18:51.308Z,61.43
2023-04-18T06:19:51.433Z,58.38
2023-04-18T06:20:51.809Z,57.79
2023-04-18T06:21:50.698Z,60.94
2023-04-18T06:22:50.727Z,60.65
2023-04-18T06:23:50.726Z,57.68
2023-04-18T06:24:50.862Z,58.02
2023-04-18T06:25:56.764Z,59.67
2023-04-18T06:26:51.053Z,58.72
2023-04-18T06:27:50.705Z,57.48
2023-04-18T06:28:50.813Z,59.99
2023-04-18T06:29:50.893Z,58.86
2023-04-18T06:30:50.999Z,61.21
2023-04-18T06:31:51.046Z,58.66
2023-04-18T06:32:51.393Z,58.88
2023-04-18T06:33:50.730Z,58.42
2023-04-18T06:34:51.386Z,58.23
2023-04-18T06:35:51.178Z,60.21
2023-04-18T06:36:51.516Z,57.98
2023-04-18T06:37:50.875Z,60.04
2023-04-18T06:38:51.117Z,59.08
2023-04-18T06:39:50.845Z,60.22
2023-04-18T06:40:50.598Z,58.54
2023-04-18T06:41:51.095Z,61.26
2023-04-18T06:42:51.432Z,60.51
2023-04-18T06:44:02.673Z,59.32
2023-04-18T06:44:52.940Z,60.66
2023-04-18T06:45:50.535Z,59.12
2023-04-18T06:46:50.509Z,59.81
2023-04-18T06:47:50.521Z,60.23
2023-04-18T06:48:51.519Z,61.27
2023-04-18T06:49:50.467Z,59.82
2023-04-18T06:50:50.525Z,60.67
2023-04-18T06:51:50.488Z,59.39
2023-04-18T06:52:50.467Z,59.18
2023-04-18T06:53:50.435Z,58.63
2023-04-18T06:54:50.453Z,59.63
2023-04-18T06:55:50.428Z,59.18
2023-04-18T06:56:50.464Z,60.21
2023-04-18T06:57:50.435Z,59.51
2023-04-18T06:58:50.418Z,58.38
2023-04-18T06:59:50.435Z,58.98
2023-04-18T07:00:50.473Z,59.62
2023-04-18T07:01:50.396Z,60.63
2023-04-18T07:02:50.570Z,60.62
2023-04-18T07:03:50.461Z,59.82
2023-04-18T07:04:50.413Z,59.59
2023-04-18T07:05:50.402Z,61.89
2023-04-18T07:06:50.353Z,61.65
2023-04-18T07:07:50.381Z,59.33
2023-04-18T07:08:51.291Z,63.32
2023-04-18T07:09:50.391Z,60.26
2023-04-18T07:10:50.323Z,59.00
2023-04-18T07:11:51.545Z,58.83
2023-04-18T07:12:50.322Z,58.13
2023-04-18T07:13:50.329Z,59.55
2023-04-18T07:14:50.353Z,63.74
2023-04-18T07:15:50.282Z,61.38
2023-04-18T07:16:50.323Z,63.75
2023-04-18T07:17:50.332Z,61.45
2023-04-18T07:18:50.281Z,60.12
2023-04-18T07:19:50.270Z,59.72
2023-04-18T07:20:50.349Z,63.45
2023-04-18T07:21:50.268Z,58.59
2023-04-18T07:22:50.252Z,58.83
2023-04-18T07:23:50.256Z,58.62
2023-04-18T07:24:50.246Z,58.25
2023-04-18T07:25:50.233Z,60.30
2023-04-18T07:26:50.264Z,59.91
2023-04-18T07:27:50.313Z,59.27
2023-04-18T07:28:50.191Z,59.77
2023-04-18T07:29:50.239Z,59.84
2023-04-18T07:30:50.268Z,60.38
2023-04-18T07:31:50.173Z,59.21
2023-04-18T07:32:50.391Z,59.64
2023-04-18T07:33:50.179Z,58.57
2023-04-18T07:34:50.141Z,57.88
2023-04-18T07:35:50.167Z,59.00
2023-04-18T07:36:50.159Z,58.32
2023-04-18T07:37:50.164Z,57.37
2023-04-18T07:38:50.180Z,58.28
2023-04-18T07:39:50.132Z,64.33
2023-04-18T07:40:50.120Z,62.27
2023-04-18T07:41:50.130Z,62.18
2023-04-18T07:42:50.132Z,62.50
2023-04-18T07:43:50.114Z,63.33
2023-04-18T07:44:50.169Z,59.60
2023-04-18T07:45:50.177Z,58.30
2023-04-18T07:46:50.146Z,59.48
2023-04-18T07:47:50.110Z,60.32
2023-04-18T07:48:50.049Z,57.48
2023-04-18T07:49:50.070Z,58.83
2023-04-18T07:50:50.118Z,58.16
2023-04-18T07:51:50.039Z,58.95
2023-04-18T07:52:50.036Z,59.19
2023-04-18T07:53:50.015Z,61.62
2023-04-18T07:54:50.021Z,57.71
2023-04-18T07:55:50.026Z,61.68
2023-04-18T07:56:50.055Z,60.99
2023-04-18T07:57:50.025Z,60.13
2023-04-18T07:58:49.986Z,61.87
2023-04-18T07:59:49.986Z,63.21
2023-04-18T08:00:49.994Z,60.07
2023-04-18T08:01:49.989Z,58.04
2023-04-18T08:02:50.195Z,59.06
2023-04-18T08:03:50.064Z,62.75
2023-04-18T08:04:50.147Z,61.05
2023-04-18T08:05:49.944Z,62.86
2023-04-18T08:06:49.958Z,60.51
2023-04-18T08:07:49.937Z,58.22
2023-04-18T08:08:49.985Z,58.97
2023-04-18T08:09:49.902Z,61.96
2023-04-18T08:10:49.941Z,57.90
2023-04-18T08:11:49.921Z,58.70
2023-04-18T08:12:49.897Z,59.44
2023-04-18T08:13:49.868Z,58.57
2023-04-18T08:14:49.942Z,61.15
2023-04-18T08:15:49.997Z,59.92
2023-04-18T08:16:49.878Z,58.89
2023-04-18T08:17:49.908Z,59.14
2023-04-18T08:18:49.879Z,59.27
2023-04-18T08:19:49.838Z,59.90
2023-04-18T08:20:49.857Z,59.01
2023-04-18T08:21:49.866Z,59.65
2023-04-18T08:23:04.688Z,58.79
2023-04-18T08:23:50.799Z,60.23
2023-04-18T08:25:03.243Z,58.66
2023-04-18T08:25:50.844Z,59.89
2023-04-18T08:26:49.855Z,59.87
2023-04-18T08:27:49.774Z,58.11
2023-04-18T08:28:49.779Z,58.46
2023-04-18T08:29:49.783Z,59.74
2023-04-18T08:30:49.778Z,59.12
2023-04-18T08:31:49.891Z,60.14
2023-04-18T08:32:49.833Z,59.07
2023-04-18T08:33:49.743Z,58.92
2023-04-18T08:34:49.749Z,59.58
2023-04-18T08:35:49.730Z,57.99
2023-04-18T08:36:49.714Z,57.33
2023-04-18T08:37:49.752Z,57.53
2023-04-18T08:38:50.373Z,58.41
2023-04-18T08:39:49.721Z,58.97
2023-04-18T08:40:49.691Z,57.17
2023-04-18T08:41:49.735Z,67.28
2023-04-18T08:42:49.736Z,66.32
2023-04-18T08:43:49.721Z,67.05
2023-04-18T08:44:49.700Z,65.95
2023-04-18T08:45:49.697Z,65.48
2023-04-18T08:46:49.772Z,59.61
2023-04-18T08:47:49.665Z,59.92
2023-04-18T08:48:49.629Z,57.13
2023-04-18T08:49:49.735Z,58.56
2023-04-18T08:50:49.646Z,57.94
2023-04-18T08:51:49.617Z,57.07
2023-04-18T08:52:49.621Z,57.44
2023-04-18T08:53:49.597Z,57.82
2023-04-18T08:54:49.579Z,62.29
2023-04-18T08:55:49.673Z,58.45
2023-04-18T08:56:49.601Z,58.40
2023-04-18T08:57:49.577Z,59.81
2023-04-18T08:58:49.578Z,57.88
2023-04-18T08:59:50.941Z,60.23
2023-04-18T09:00:49.557Z,59.49
2023-04-18T09:01:49.876Z,59.21
2023-04-18T09:02:50.655Z,58.79
2023-04-18T09:03:49.601Z,59.46
2023-04-18T09:04:49.540Z,60.35
2023-04-18T09:05:49.512Z,57.58
2023-04-18T09:06:49.517Z,60.79
2023-04-18T09:07:49.568Z,60.55
2023-04-18T09:08:49.506Z,60.49
2023-04-18T09:09:49.493Z,61.25
2023-04-18T09:10:49.474Z,61.13
2023-04-18T09:11:49.479Z,60.64
2023-04-18T09:12:49.641Z,61.25
2023-04-18T09:13:49.482Z,60.73
2023-04-18T09:14:49.469Z,61.78
2023-04-18T09:15:49.471Z,60.12
2023-04-18T09:16:49.457Z,60.58
2023-04-18T09:17:49.456Z,59.85
2023-04-18T09:18:49.430Z,60.64
2023-04-18T09:19:49.493Z,61.02
2023-04-18T09:20:49.418Z,61.19
2023-04-18T09:21:49.384Z,59.08
2023-04-18T09:22:49.386Z,60.43
2023-04-18T09:23:49.397Z,59.17
2023-04-18T09:24:49.376Z,58.80
2023-04-18T09:25:49.415Z,60.39
2023-04-18T09:26:49.366Z,58.97
2023-04-18T09:27:49.364Z,58.01
2023-04-18T09:28:49.342Z,58.53
2023-04-18T09:29:49.383Z,59.59
2023-04-18T09:30:49.337Z,58.45
2023-04-18T09:31:49.358Z,58.90
2023-04-18T09:32:49.315Z,59.63
2023-04-18T09:33:49.338Z,58.66
2023-04-18T09:34:49.343Z,61.13
2023-04-18T09:35:49.298Z,60.55
2023-04-18T09:36:49.305Z,58.18
2023-04-18T09:37:49.323Z,59.54
2023-04-18T09:38:49.292Z,59.17
2023-04-18T09:39:49.275Z,59.44
2023-04-18T09:40:49.313Z,61.34
2023-04-18T09:41:49.254Z,62.06
2023-04-18T09:42:49.261Z,58.79
2023-04-18T09:43:49.307Z,61.54
2023-04-18T09:44:49.229Z,60.98
2023-04-18T09:45:49.297Z,60.73
2023-04-18T09:46:49.325Z,61.96
2023-04-18T09:47:49.243Z,62.44
2023-04-18T09:48:49.219Z,60.81
2023-04-18T09:49:49.258Z,60.43
2023-04-18T09:50:49.248Z,61.00
2023-04-18T09:51:49.191Z,60.06
2023-04-18T09:52:49.201Z,60.31
2023-04-18T09:53:49.149Z,59.66
2023-04-18T09:54:49.169Z,57.91
2023-04-18T09:55:49.411Z,57.32
2023-04-18T09:56:49.132Z,58.55
2023-04-18T09:57:49.166Z,59.14
2023-04-18T09:58:49.148Z,61.19
2023-04-18T09:59:49.118Z,61.48
2023-04-18T10:00:49.120Z,60.46
2023-04-18T10:01:49.163Z,62.58
2023-04-18T10:02:49.200Z,62.09
2023-04-18T10:03:49.168Z,60.57
2023-04-18T10:04:49.180Z,58.10
2023-04-18T10:05:49.162Z,57.86
2023-04-18T10:06:49.106Z,58.36
2023-04-18T10:07:49.126Z,57.80
2023-04-18T10:08:49.134Z,60.07
2023-04-18T10:09:49.059Z,61.59
2023-04-18T10:10:49.072Z,58.47
2023-04-18T10:11:49.089Z,59.57
2023-04-18T10:12:49.061Z,58.53
2023-04-18T10:13:49.072Z,58.01
2023-04-18T10:14:49.040Z,59.68
2023-04-18T10:15:50.398Z,57.44
2023-04-18T10:16:50.464Z,57.76
2023-04-18T10:18:02.802Z,57.75
2023-04-18T10:18:50.061Z,58.11
2023-04-18T10:19:48.962Z,62.40
2023-04-18T10:20:49.007Z,59.42
2023-04-18T10:21:48.953Z,59.43
2023-04-18T10:22:49.006Z,60.90
2023-04-18T10:23:49.024Z,63.11
2023-04-18T10:24:48.985Z,62.87
2023-04-18T10:25:48.930Z,62.03
2023-04-18T10:26:49.015Z,59.65
2023-04-18T10:27:49.099Z,60.42
2023-04-18T10:28:48.973Z,60.05
2023-04-18T10:29:48.944Z,58.58
2023-04-18T10:30:49.031Z,58.17
2023-04-18T10:31:48.952Z,57.22
2023-04-18T10:32:48.966Z,60.15
2023-04-18T10:34:48.892Z,60.24
2023-04-18T10:35:48.873Z,60.93
2023-04-18T10:36:48.900Z,60.28
2023-04-18T10:37:48.854Z,60.59
2023-04-18T10:38:48.837Z,60.42
2023-04-18T10:39:49.026Z,61.14
2023-04-18T10:40:48.846Z,60.10
2023-04-18T10:41:49.527Z,60.82
2023-04-18T10:42:48.857Z,61.65
2023-04-18T10:43:48.824Z,60.39
2023-04-18T10:44:48.805Z,57.58
2023-04-18T10:45:48.807Z,59.06
2023-04-18T10:46:48.958Z,59.23
2023-04-18T10:47:48.841Z,58.87
2023-04-18T10:48:48.824Z,56.30
2023-04-18T10:49:48.812Z,60.13
2023-04-18T10:50:48.769Z,62.53
2023-04-18T10:51:48.752Z,60.19
2023-04-18T10:52:48.746Z,60.59
2023-04-18T10:53:48.809Z,60.49
2023-04-18T10:54:49.293Z,60.44
2023-04-18T10:55:48.728Z,59.34
2023-04-18T10:56:48.716Z,60.42
2023-04-18T10:57:48.795Z,58.68
2023-04-18T10:58:48.705Z,60.49
2023-04-18T10:59:48.765Z,57.97
2023-04-18T11:00:49.033Z,58.11
2023-04-18T11:01:48.667Z,58.64
2023-04-18T11:02:48.901Z,57.84
2023-04-18T11:03:48.708Z,57.45
2023-04-18T11:04:48.724Z,55.56
2023-04-18T11:05:48.725Z,56.66
2023-04-18T11:06:48.693Z,58.87
2023-04-18T11:07:48.738Z,57.32
2023-04-18T11:08:48.640Z,57.05
2023-04-18T11:09:48.618Z,59.63
2023-04-18T11:10:48.610Z,56.34
2023-04-18T11:11:48.656Z,56.91
2023-04-18T11:12:48.736Z,57.51
2023-04-18T11:13:48.604Z,59.85
2023-04-18T11:14:48.614Z,58.32
2023-04-18T11:15:48.558Z,58.40
2023-04-18T11:16:48.644Z,58.58
2023-04-18T11:17:48.601Z,60.19
2023-04-18T11:18:48.620Z,59.44
2023-04-18T11:19:48.614Z,58.80
2023-04-18T11:20:48.541Z,58.98
2023-04-18T11:21:48.543Z,59.67
2023-04-18T11:22:48.522Z,60.01
2023-04-18T11:23:48.567Z,58.81
2023-04-18T11:24:48.577Z,59.59
2023-04-18T11:25:48.518Z,60.23
2023-04-18T11:26:48.504Z,57.39
2023-04-18T11:27:48.530Z,56.75
2023-04-18T11:28:48.503Z,59.24
2023-04-18T11:29:48.494Z,57.08
2023-04-18T11:30:48.544Z,56.17
2023-04-18T11:31:48.495Z,57.58
2023-04-18T11:32:48.478Z,59.41
2023-04-18T11:33:48.463Z,57.15
2023-04-18T11:34:48.441Z,58.29
2023-04-18T11:35:48.478Z,58.14
2023-04-18T11:36:48.490Z,61.02
2023-04-18T11:37:48.458Z,56.60
2023-04-18T11:38:48.439Z,57.27
2023-04-18T11:39:48.404Z,56.07
2023-04-18T11:40:48.406Z,59.29
2023-04-18T11:41:48.431Z,57.93
2023-04-18T11:42:48.453Z,57.37
2023-04-18T11:43:48.378Z,58.86
2023-04-18T11:44:48.377Z,57.35
2023-04-18T11:45:48.448Z,59.52
2023-04-18T11:46:48.337Z,59.60
2023-04-18T11:47:48.363Z,60.03
2023-04-18T11:48:48.432Z,60.81
2023-04-18T11:49:48.331Z,59.15
2023-04-18T11:50:48.334Z,60.55
2023-04-18T11:51:48.344Z,62.53
2023-04-18T11:52:48.308Z,61.91
2023-04-18T11:53:48.349Z,61.80
2023-04-18T11:54:48.339Z,61.08
2023-04-18T11:55:48.308Z,62.19
2023-04-18T11:56:48.318Z,62.59
2023-04-18T11:57:48.276Z,60.74
2023-04-18T11:58:48.296Z,61.88
2023-04-18T11:59:48.294Z,59.83
2023-04-18T12:00:48.728Z,61.51
2023-04-18T12:01:48.315Z,60.09
2023-04-18T12:02:48.341Z,60.03
2023-04-18T12:03:48.390Z,60.72
2023-04-18T12:04:48.413Z,59.74
2023-04-18T12:05:48.598Z,61.08
2023-04-18T12:06:48.254Z,60.09
2023-04-18T12:07:48.236Z,60.07
2023-04-18T12:08:48.226Z,58.96
2023-04-18T12:09:48.203Z,59.68
2023-04-18T12:10:48.186Z,59.42
2023-04-18T12:11:48.210Z,58.51
2023-04-18T12:12:48.241Z,57.90
2023-04-18T12:13:48.183Z,59.70
2023-04-18T12:14:48.177Z,58.49
2023-04-18T12:15:48.254Z,58.86
2023-04-18T12:16:48.145Z,59.38
2023-04-18T12:17:48.151Z,59.63
2023-04-18T12:18:48.184Z,59.08
2023-04-18T12:19:49.819Z,59.86
2023-04-18T12:20:48.188Z,58.88
2023-04-18T12:21:48.106Z,58.97
2023-04-18T12:22:48.102Z,58.71
2023-04-18T12:23:48.093Z,58.16
2023-04-18T12:24:48.137Z,58.32
2023-04-18T12:25:48.100Z,58.96
2023-04-18T12:26:48.065Z,57.87
2023-04-18T12:27:48.071Z,57.69
2023-04-18T12:28:48.079Z,59.40
2023-04-18T12:29:48.078Z,57.78
2023-04-18T12:30:48.181Z,54.93
2023-04-18T12:31:48.034Z,55.89
2023-04-18T12:32:48.044Z,57.42
2023-04-18T12:33:48.119Z,55.68
2023-04-18T12:34:48.017Z,56.79
2023-04-18T12:35:49.538Z,57.73
2023-04-18T12:36:48.030Z,59.65
2023-04-18T12:37:47.995Z,56.93
2023-04-18T12:38:47.978Z,57.61
2023-04-18T12:39:47.996Z,56.61
2023-04-18T12:40:48.041Z,58.50
2023-04-18T12:41:49.730Z,60.33
2023-04-18T12:42:48.012Z,58.53
2023-04-18T12:43:47.945Z,58.44
2023-04-18T12:44:48.106Z,58.09
2023-04-18T12:45:47.932Z,58.54
2023-04-18T12:46:48.077Z,60.94
2023-04-18T12:47:48.015Z,60.32
2023-04-18T12:48:47.945Z,59.43
2023-04-18T12:49:47.909Z,57.63
2023-04-18T12:50:47.934Z,57.52
2023-04-18T12:51:47.875Z,56.22
2023-04-18T12:52:47.890Z,57.29
2023-04-18T12:53:47.861Z,57.54